sensor_id;sensor_type;location;lat;lon;timestamp;P1;durP1;ratioP1;P2;durP2;ratioP2
71715;SDS011;59568;52.128;5.434;2023-12-04T00:01:16;9.27;;;4.97;;
71715;SDS011;59568;52.128;5.434;2023-12-04T00:03:43;8.77;;;4.20;;
71715;SDS011;59568;52.128;5.434;2023-12-04T00:06:11;16.63;;;5.30;;
71715;SDS011;59568;52.128;5.434;2023-12-04T00:08:38;8.15;;;3.60;;
71715;SDS011;59568;52.128;5.434;2023-12-04T00:11:06;14.55;;;4.45;;
71715;SDS011;59568;52.128;5.434;2023-12-04T00:13:33;13.77;;;4.97;;
71715;SDS011;59568;52.128;5.434;2023-12-04T00:16:01;11.65;;;5.53;;
71715;SDS011;59568;52.128;5.434;2023-12-04T00:18:28;10.53;;;5.33;;
71715;SDS011;59568;52.128;5.434;2023-12-04T00:20:56;10.90;;;4.63;;
71715;SDS011;59568;52.128;5.434;2023-12-04T00:23:23;9.40;;;5.10;;
71715;SDS011;59568;52.128;5.434;2023-12-04T00:25:50;9.32;;;4.25;;
71715;SDS011;59568;52.128;5.434;2023-12-04T00:28:17;10.93;;;4.80;;
71715;SDS011;59568;52.128;5.434;2023-12-04T00:30:44;7.27;;;3.70;;
71715;SDS011;59568;52.128;5.434;2023-12-04T00:33:11;9.23;;;4.75;;
71715;SDS011;59568;52.128;5.434;2023-12-04T00:35:38;12.48;;;4.97;;
71715;SDS011;59568;52.128;5.434;2023-12-04T00:38:05;10.82;;;5.13;;
71715;SDS011;59568;52.128;5.434;2023-12-04T00:40:33;11.57;;;5.57;;
71715;SDS011;59568;52.128;5.434;2023-12-04T00:43:00;9.97;;;5.20;;
71715;SDS011;59568;52.128;5.434;2023-12-04T00:45:27;10.85;;;5.40;;
71715;SDS011;59568;52.128;5.434;2023-12-04T00:47:54;14.82;;;5.43;;
71715;SDS011;59568;52.128;5.434;2023-12-04T00:50:21;10.52;;;5.75;;
71715;SDS011;59568;52.128;5.434;2023-12-04T00:52:48;12.07;;;5.45;;
71715;SDS011;59568;52.128;5.434;2023-12-04T00:55:15;12.53;;;5.63;;
71715;SDS011;59568;52.128;5.434;2023-12-04T00:57:42;9.10;;;4.28;;
71715;SDS011;59568;52.128;5.434;2023-12-04T01:00:09;13.60;;;5.78;;
71715;SDS011;59568;52.128;5.434;2023-12-04T01:02:37;11.35;;;4.38;;
71715;SDS011;59568;52.128;5.434;2023-12-04T01:05:04;10.90;;;5.13;;
71715;SDS011;59568;52.128;5.434;2023-12-04T01:07:31;13.83;;;6.30;;
71715;SDS011;59568;52.128;5.434;2023-12-04T01:09:57;12.75;;;5.22;;
71715;SDS011;59568;52.128;5.434;2023-12-04T01:12:24;14.30;;;6.60;;
71715;SDS011;59568;52.128;5.434;2023-12-04T01:14:51;12.25;;;4.90;;
71715;SDS011;59568;52.128;5.434;2023-12-04T01:17:18;11.57;;;5.78;;
71715;SDS011;59568;52.128;5.434;2023-12-04T01:19:45;15.67;;;6.50;;
71715;SDS011;59568;52.128;5.434;2023-12-04T01:22:12;9.93;;;4.78;;
71715;SDS011;59568;52.128;5.434;2023-12-04T01:24:39;13.38;;;6.18;;
71715;SDS011;59568;52.128;5.434;2023-12-04T01:27:06;13.00;;;5.38;;
71715;SDS011;59568;52.128;5.434;2023-12-04T01:29:33;15.25;;;6.15;;
71715;SDS011;59568;52.128;5.434;2023-12-04T01:32:01;12.80;;;5.73;;
71715;SDS011;59568;52.128;5.434;2023-12-04T01:34:28;12.93;;;5.40;;
71715;SDS011;59568;52.128;5.434;2023-12-04T01:36:55;14.27;;;5.95;;
71715;SDS011;59568;52.128;5.434;2023-12-04T01:39:22;13.35;;;5.65;;
71715;SDS011;59568;52.128;5.434;2023-12-04T01:41:49;12.68;;;5.47;;
71715;SDS011;59568;52.128;5.434;2023-12-04T01:44:16;14.20;;;6.20;;
71715;SDS011;59568;52.128;5.434;2023-12-04T01:46:44;13.50;;;5.55;;
71715;SDS011;59568;52.128;5.434;2023-12-04T01:49:11;14.65;;;5.82;;
71715;SDS011;59568;52.128;5.434;2023-12-04T01:51:38;13.27;;;5.90;;
71715;SDS011;59568;52.128;5.434;2023-12-04T01:54:06;10.65;;;5.07;;
71715;SDS011;59568;52.128;5.434;2023-12-04T01:56:33;12.30;;;5.97;;
71715;SDS011;59568;52.128;5.434;2023-12-04T01:59:03;10.88;;;5.20;;
71715;SDS011;59568;52.128;5.434;2023-12-04T02:01:30;12.55;;;6.82;;
71715;SDS011;59568;52.128;5.434;2023-12-04T02:03:57;13.57;;;5.97;;
71715;SDS011;59568;52.128;5.434;2023-12-04T02:06:28;14.32;;;6.88;;
71715;SDS011;59568;52.128;5.434;2023-12-04T02:08:55;11.97;;;4.97;;
71715;SDS011;59568;52.128;5.434;2023-12-04T02:11:23;12.10;;;6.18;;
71715;SDS011;59568;52.128;5.434;2023-12-04T02:13:51;15.23;;;6.55;;
71715;SDS011;59568;52.128;5.434;2023-12-04T02:16:18;12.40;;;5.55;;
71715;SDS011;59568;52.128;5.434;2023-12-04T02:18:48;15.18;;;5.97;;
71715;SDS011;59568;52.128;5.434;2023-12-04T02:21:15;13.67;;;4.80;;
71715;SDS011;59568;52.128;5.434;2023-12-04T02:23:43;13.45;;;6.00;;
71715;SDS011;59568;52.128;5.434;2023-12-04T02:26:16;12.05;;;5.95;;
71715;SDS011;59568;52.128;5.434;2023-12-04T02:28:50;19.02;;;6.35;;
71715;SDS011;59568;52.128;5.434;2023-12-04T02:31:22;17.55;;;6.53;;
71715;SDS011;59568;52.128;5.434;2023-12-04T02:33:55;15.80;;;5.67;;
71715;SDS011;59568;52.128;5.434;2023-12-04T02:36:24;12.73;;;6.07;;
71715;SDS011;59568;52.128;5.434;2023-12-04T02:38:53;12.65;;;5.82;;
71715;SDS011;59568;52.128;5.434;2023-12-04T02:41:20;12.15;;;5.13;;
71715;SDS011;59568;52.128;5.434;2023-12-04T02:43:47;11.32;;;5.18;;
71715;SDS011;59568;52.128;5.434;2023-12-04T02:46:14;15.53;;;6.63;;
71715;SDS011;59568;52.128;5.434;2023-12-04T02:48:41;14.30;;;6.15;;
71715;SDS011;59568;52.128;5.434;2023-12-04T02:51:08;12.23;;;6.25;;
71715;SDS011;59568;52.128;5.434;2023-12-04T02:53:36;15.35;;;7.30;;
71715;SDS011;59568;52.128;5.434;2023-12-04T02:56:03;13.30;;;5.28;;
71715;SDS011;59568;52.128;5.434;2023-12-04T02:58:30;11.93;;;5.90;;
71715;SDS011;59568;52.128;5.434;2023-12-04T03:01:00;12.02;;;5.25;;
71715;SDS011;59568;52.128;5.434;2023-12-04T03:03:27;11.32;;;4.75;;
71715;SDS011;59568;52.128;5.434;2023-12-04T03:05:55;11.63;;;5.63;;
71715;SDS011;59568;52.128;5.434;2023-12-04T03:08:22;14.15;;;5.90;;
71715;SDS011;59568;52.128;5.434;2023-12-04T03:10:49;12.70;;;5.63;;
71715;SDS011;59568;52.128;5.434;2023-12-04T03:13:16;8.40;;;4.75;;
71715;SDS011;59568;52.128;5.434;2023-12-04T03:15:43;12.32;;;5.07;;
71715;SDS011;59568;52.128;5.434;2023-12-04T03:18:10;8.93;;;5.20;;
71715;SDS011;59568;52.128;5.434;2023-12-04T03:20:38;12.95;;;5.22;;
71715;SDS011;59568;52.128;5.434;2023-12-04T03:23:05;11.23;;;5.87;;
71715;SDS011;59568;52.128;5.434;2023-12-04T03:25:32;9.75;;;5.00;;
71715;SDS011;59568;52.128;5.434;2023-12-04T03:27:59;10.98;;;5.30;;
71715;SDS011;59568;52.128;5.434;2023-12-04T03:30:26;12.98;;;6.03;;
71715;SDS011;59568;52.128;5.434;2023-12-04T03:32:53;13.43;;;5.95;;
71715;SDS011;59568;52.128;5.434;2023-12-04T03:35:20;8.10;;;4.00;;
71715;SDS011;59568;52.128;5.434;2023-12-04T03:37:47;14.07;;;5.43;;
71715;SDS011;59568;52.128;5.434;2023-12-04T03:40:16;10.88;;;4.57;;
71715;SDS011;59568;52.128;5.434;2023-12-04T03:42:43;10.35;;;5.18;;
71715;SDS011;59568;52.128;5.434;2023-12-04T03:45:10;12.90;;;5.82;;
71715;SDS011;59568;52.128;5.434;2023-12-04T03:47:37;14.90;;;5.43;;
71715;SDS011;59568;52.128;5.434;2023-12-04T03:50:05;12.10;;;5.63;;
71715;SDS011;59568;52.128;5.434;2023-12-04T03:52:32;12.95;;;5.78;;
71715;SDS011;59568;52.128;5.434;2023-12-04T03:54:59;11.95;;;6.30;;
71715;SDS011;59568;52.128;5.434;2023-12-04T03:57:26;9.75;;;4.90;;
71715;SDS011;59568;52.128;5.434;2023-12-04T03:59:53;10.93;;;5.13;;
71715;SDS011;59568;52.128;5.434;2023-12-04T04:02:20;12.82;;;6.07;;
71715;SDS011;59568;52.128;5.434;2023-12-04T04:04:47;13.38;;;6.45;;
71715;SDS011;59568;52.128;5.434;2023-12-04T04:07:15;11.85;;;6.22;;
71715;SDS011;59568;52.128;5.434;2023-12-04T04:09:44;9.73;;;5.38;;
71715;SDS011;59568;52.128;5.434;2023-12-04T04:12:11;10.47;;;5.63;;
71715;SDS011;59568;52.128;5.434;2023-12-04T04:14:38;10.88;;;5.45;;
71715;SDS011;59568;52.128;5.434;2023-12-04T04:17:05;10.75;;;4.97;;
71715;SDS011;59568;52.128;5.434;2023-12-04T04:19:32;10.85;;;5.32;;
71715;SDS011;59568;52.128;5.434;2023-12-04T04:21:59;10.45;;;4.40;;
71715;SDS011;59568;52.128;5.434;2023-12-04T04:24:26;7.47;;;4.27;;
71715;SDS011;59568;52.128;5.434;2023-12-04T04:26:53;10.40;;;4.75;;
71715;SDS011;59568;52.128;5.434;2023-12-04T04:29:20;10.68;;;5.00;;
71715;SDS011;59568;52.128;5.434;2023-12-04T04:31:47;13.05;;;5.32;;
71715;SDS011;59568;52.128;5.434;2023-12-04T04:34:14;12.40;;;4.80;;
71715;SDS011;59568;52.128;5.434;2023-12-04T04:36:42;10.70;;;4.53;;
71715;SDS011;59568;52.128;5.434;2023-12-04T04:39:11;11.82;;;4.88;;
71715;SDS011;59568;52.128;5.434;2023-12-04T04:41:39;8.20;;;4.15;;
71715;SDS011;59568;52.128;5.434;2023-12-04T04:44:06;8.93;;;4.35;;
71715;SDS011;59568;52.128;5.434;2023-12-04T04:46:33;9.10;;;4.50;;
71715;SDS011;59568;52.128;5.434;2023-12-04T04:49:00;10.40;;;4.90;;
71715;SDS011;59568;52.128;5.434;2023-12-04T04:51:28;7.10;;;3.60;;
71715;SDS011;59568;52.128;5.434;2023-12-04T04:53:58;8.38;;;3.50;;
71715;SDS011;59568;52.128;5.434;2023-12-04T04:56:25;11.50;;;5.00;;
71715;SDS011;59568;52.128;5.434;2023-12-04T04:58:53;7.05;;;3.78;;
71715;SDS011;59568;52.128;5.434;2023-12-04T05:01:20;9.93;;;3.80;;
71715;SDS011;59568;52.128;5.434;2023-12-04T05:03:47;8.48;;;4.47;;
71715;SDS011;59568;52.128;5.434;2023-12-04T05:06:14;8.18;;;4.20;;
71715;SDS011;59568;52.128;5.434;2023-12-04T05:08:41;7.82;;;3.92;;
71715;SDS011;59568;52.128;5.434;2023-12-04T05:11:08;13.60;;;5.22;;
71715;SDS011;59568;52.128;5.434;2023-12-04T05:13:35;9.50;;;4.43;;
71715;SDS011;59568;52.128;5.434;2023-12-04T05:16:02;8.65;;;4.50;;
71715;SDS011;59568;52.128;5.434;2023-12-04T05:18:29;11.35;;;4.18;;
71715;SDS011;59568;52.128;5.434;2023-12-04T05:20:56;9.18;;;4.30;;
71715;SDS011;59568;52.128;5.434;2023-12-04T05:23:23;9.98;;;4.85;;
71715;SDS011;59568;52.128;5.434;2023-12-04T05:25:50;10.00;;;4.93;;
71715;SDS011;59568;52.128;5.434;2023-12-04T05:28:17;8.60;;;4.93;;
71715;SDS011;59568;52.128;5.434;2023-12-04T05:30:45;10.68;;;3.90;;
71715;SDS011;59568;52.128;5.434;2023-12-04T05:33:12;8.63;;;3.80;;
71715;SDS011;59568;52.128;5.434;2023-12-04T05:35:39;9.82;;;4.78;;
71715;SDS011;59568;52.128;5.434;2023-12-04T05:38:06;8.63;;;3.53;;
71715;SDS011;59568;52.128;5.434;2023-12-04T05:40:35;8.80;;;4.47;;
71715;SDS011;59568;52.128;5.434;2023-12-04T05:43:02;8.77;;;4.07;;
71715;SDS011;59568;52.128;5.434;2023-12-04T05:45:29;7.57;;;3.63;;
71715;SDS011;59568;52.128;5.434;2023-12-04T05:47:56;10.43;;;4.82;;
71715;SDS011;59568;52.128;5.434;2023-12-04T05:50:23;9.33;;;5.00;;
71715;SDS011;59568;52.128;5.434;2023-12-04T05:52:50;7.00;;;3.92;;
71715;SDS011;59568;52.128;5.434;2023-12-04T05:55:17;8.05;;;3.42;;
71715;SDS011;59568;52.128;5.434;2023-12-04T05:57:44;10.20;;;4.88;;
71715;SDS011;59568;52.128;5.434;2023-12-04T06:00:11;11.20;;;4.47;;
71715;SDS011;59568;52.128;5.434;2023-12-04T06:02:41;8.67;;;4.93;;
71715;SDS011;59568;52.128;5.434;2023-12-04T06:05:09;8.05;;;4.45;;
71715;SDS011;59568;52.128;5.434;2023-12-04T06:07:37;7.68;;;3.47;;
71715;SDS011;59568;52.128;5.434;2023-12-04T06:10:04;6.30;;;3.72;;
71715;SDS011;59568;52.128;5.434;2023-12-04T06:12:32;9.50;;;4.28;;
71715;SDS011;59568;52.128;5.434;2023-12-04T06:14:59;8.07;;;4.20;;
71715;SDS011;59568;52.128;5.434;2023-12-04T06:17:27;6.88;;;3.38;;
71715;SDS011;59568;52.128;5.434;2023-12-04T06:19:54;10.55;;;3.88;;
71715;SDS011;59568;52.128;5.434;2023-12-04T06:22:21;10.95;;;4.00;;
71715;SDS011;59568;52.128;5.434;2023-12-04T06:24:49;6.57;;;3.80;;
71715;SDS011;59568;52.128;5.434;2023-12-04T06:27:17;8.40;;;3.73;;
71715;SDS011;59568;52.128;5.434;2023-12-04T06:29:47;9.70;;;3.22;;
71715;SDS011;59568;52.128;5.434;2023-12-04T06:32:18;7.97;;;3.47;;
71715;SDS011;59568;52.128;5.434;2023-12-04T06:34:46;9.65;;;4.35;;
71715;SDS011;59568;52.128;5.434;2023-12-04T06:37:14;9.95;;;4.15;;
71715;SDS011;59568;52.128;5.434;2023-12-04T06:39:42;8.43;;;3.43;;
71715;SDS011;59568;52.128;5.434;2023-12-04T06:42:12;6.43;;;3.33;;
71715;SDS011;59568;52.128;5.434;2023-12-04T06:44:40;7.93;;;4.60;;
71715;SDS011;59568;52.128;5.434;2023-12-04T06:47:08;8.23;;;3.75;;
71715;SDS011;59568;52.128;5.434;2023-12-04T06:49:35;8.82;;;3.70;;
71715;SDS011;59568;52.128;5.434;2023-12-04T06:52:03;6.60;;;3.13;;
71715;SDS011;59568;52.128;5.434;2023-12-04T06:54:30;7.63;;;4.07;;
71715;SDS011;59568;52.128;5.434;2023-12-04T06:56:57;9.18;;;4.15;;
71715;SDS011;59568;52.128;5.434;2023-12-04T06:59:24;8.07;;;4.43;;
71715;SDS011;59568;52.128;5.434;2023-12-04T07:01:51;9.50;;;3.90;;
71715;SDS011;59568;52.128;5.434;2023-12-04T07:04:19;9.83;;;3.80;;
71715;SDS011;59568;52.128;5.434;2023-12-04T07:06:48;7.95;;;3.38;;
71715;SDS011;59568;52.128;5.434;2023-12-04T07:09:16;5.63;;;2.95;;
71715;SDS011;59568;52.128;5.434;2023-12-04T07:11:46;9.93;;;4.25;;
71715;SDS011;59568;52.128;5.434;2023-12-04T07:14:13;6.90;;;3.60;;
71715;SDS011;59568;52.128;5.434;2023-12-04T07:16:41;7.10;;;3.63;;
71715;SDS011;59568;52.128;5.434;2023-12-04T07:19:09;8.68;;;3.67;;
71715;SDS011;59568;52.128;5.434;2023-12-04T07:21:37;9.10;;;3.92;;
71715;SDS011;59568;52.128;5.434;2023-12-04T07:24:05;7.25;;;4.15;;
71715;SDS011;59568;52.128;5.434;2023-12-04T07:26:33;9.10;;;4.63;;
71715;SDS011;59568;52.128;5.434;2023-12-04T07:29:01;8.90;;;3.23;;
71715;SDS011;59568;52.128;5.434;2023-12-04T07:31:30;9.70;;;4.05;;
71715;SDS011;59568;52.128;5.434;2023-12-04T07:33:57;7.32;;;3.15;;
71715;SDS011;59568;52.128;5.434;2023-12-04T07:36:27;6.00;;;3.03;;
71715;SDS011;59568;52.128;5.434;2023-12-04T07:38:55;7.30;;;3.45;;
71715;SDS011;59568;52.128;5.434;2023-12-04T07:41:22;7.87;;;4.27;;
71715;SDS011;59568;52.128;5.434;2023-12-04T07:43:49;6.05;;;3.63;;
71715;SDS011;59568;52.128;5.434;2023-12-04T07:46:16;7.65;;;3.67;;
71715;SDS011;59568;52.128;5.434;2023-12-04T07:48:43;7.80;;;3.95;;
71715;SDS011;59568;52.128;5.434;2023-12-04T07:51:10;9.23;;;3.70;;
71715;SDS011;59568;52.128;5.434;2023-12-04T07:53:37;6.73;;;3.23;;
71715;SDS011;59568;52.128;5.434;2023-12-04T07:56:05;5.70;;;2.80;;
71715;SDS011;59568;52.128;5.434;2023-12-04T07:58:32;5.95;;;3.38;;
71715;SDS011;59568;52.128;5.434;2023-12-04T08:00:59;6.43;;;3.55;;
71715;SDS011;59568;52.128;5.434;2023-12-04T08:03:26;7.10;;;3.17;;
71715;SDS011;59568;52.128;5.434;2023-12-04T08:05:53;5.40;;;2.90;;
71715;SDS011;59568;52.128;5.434;2023-12-04T08:08:21;5.68;;;3.10;;
71715;SDS011;59568;52.128;5.434;2023-12-04T08:10:48;6.53;;;3.20;;
71715;SDS011;59568;52.128;5.434;2023-12-04T08:13:15;6.18;;;3.15;;
71715;SDS011;59568;52.128;5.434;2023-12-04T08:15:43;4.63;;;2.92;;
71715;SDS011;59568;52.128;5.434;2023-12-04T08:18:11;6.30;;;3.37;;
71715;SDS011;59568;52.128;5.434;2023-12-04T08:20:38;6.80;;;3.97;;
71715;SDS011;59568;52.128;5.434;2023-12-04T08:23:07;5.88;;;2.97;;
71715;SDS011;59568;52.128;5.434;2023-12-04T08:25:34;6.78;;;3.65;;
71715;SDS011;59568;52.128;5.434;2023-12-04T08:28:06;6.20;;;3.55;;
71715;SDS011;59568;52.128;5.434;2023-12-04T08:30:33;6.23;;;3.30;;
71715;SDS011;59568;52.128;5.434;2023-12-04T08:33:00;5.53;;;3.35;;
71715;SDS011;59568;52.128;5.434;2023-12-04T08:35:27;6.95;;;2.50;;
71715;SDS011;59568;52.128;5.434;2023-12-04T08:37:54;7.03;;;3.38;;
71715;SDS011;59568;52.128;5.434;2023-12-04T08:40:21;14.30;;;4.90;;
71715;SDS011;59568;52.128;5.434;2023-12-04T08:42:49;6.27;;;3.03;;
71715;SDS011;59568;52.128;5.434;2023-12-04T08:45:17;6.05;;;2.72;;
71715;SDS011;59568;52.128;5.434;2023-12-04T08:47:45;6.88;;;3.08;;
71715;SDS011;59568;52.128;5.434;2023-12-04T08:50:13;5.50;;;2.45;;
71715;SDS011;59568;52.128;5.434;2023-12-04T08:52:40;5.30;;;2.97;;
71715;SDS011;59568;52.128;5.434;2023-12-04T08:55:09;6.57;;;3.00;;
71715;SDS011;59568;52.128;5.434;2023-12-04T08:57:36;7.93;;;3.50;;
71715;SDS011;59568;52.128;5.434;2023-12-04T09:00:04;7.22;;;2.70;;
71715;SDS011;59568;52.128;5.434;2023-12-04T09:02:32;5.13;;;3.30;;
71715;SDS011;59568;52.128;5.434;2023-12-04T09:04:59;6.75;;;3.17;;
71715;SDS011;59568;52.128;5.434;2023-12-04T09:07:27;7.37;;;3.30;;
71715;SDS011;59568;52.128;5.434;2023-12-04T09:09:57;6.03;;;2.92;;
71715;SDS011;59568;52.128;5.434;2023-12-04T09:12:24;7.45;;;3.90;;
71715;SDS011;59568;52.128;5.434;2023-12-04T09:14:52;5.43;;;2.85;;
71715;SDS011;59568;52.128;5.434;2023-12-04T09:17:19;7.88;;;2.97;;
71715;SDS011;59568;52.128;5.434;2023-12-04T09:19:49;7.07;;;3.20;;
71715;SDS011;59568;52.128;5.434;2023-12-04T09:22:16;8.27;;;3.42;;
71715;SDS011;59568;52.128;5.434;2023-12-04T09:24:46;6.03;;;3.65;;
71715;SDS011;59568;52.128;5.434;2023-12-04T09:27:13;6.35;;;3.13;;
71715;SDS011;59568;52.128;5.434;2023-12-04T09:29:41;5.50;;;2.50;;
71715;SDS011;59568;52.128;5.434;2023-12-04T09:32:08;6.27;;;2.97;;
71715;SDS011;59568;52.128;5.434;2023-12-04T09:34:38;7.40;;;3.60;;
71715;SDS011;59568;52.128;5.434;2023-12-04T09:37:05;6.65;;;3.45;;
71715;SDS011;59568;52.128;5.434;2023-12-04T09:39:37;5.07;;;2.80;;
71715;SDS011;59568;52.128;5.434;2023-12-04T09:42:04;6.72;;;3.05;;
71715;SDS011;59568;52.128;5.434;2023-12-04T09:44:33;5.60;;;2.80;;
71715;SDS011;59568;52.128;5.434;2023-12-04T09:47:01;6.88;;;3.45;;
71715;SDS011;59568;52.128;5.434;2023-12-04T09:49:29;5.25;;;2.58;;
71715;SDS011;59568;52.128;5.434;2023-12-04T09:51:58;5.88;;;2.95;;
71715;SDS011;59568;52.128;5.434;2023-12-04T09:54:29;6.05;;;3.28;;
71715;SDS011;59568;52.128;5.434;2023-12-04T09:56:57;5.27;;;2.77;;
71715;SDS011;59568;52.128;5.434;2023-12-04T09:59:25;5.95;;;3.15;;
71715;SDS011;59568;52.128;5.434;2023-12-04T10:01:54;5.85;;;3.00;;
71715;SDS011;59568;52.128;5.434;2023-12-04T10:04:21;6.20;;;2.60;;
71715;SDS011;59568;52.128;5.434;2023-12-04T10:06:52;4.18;;;2.38;;
71715;SDS011;59568;52.128;5.434;2023-12-04T10:09:19;7.63;;;2.27;;
71715;SDS011;59568;52.128;5.434;2023-12-04T10:11:52;5.18;;;2.95;;
71715;SDS011;59568;52.128;5.434;2023-12-04T10:14:20;5.63;;;3.10;;
71715;SDS011;59568;52.128;5.434;2023-12-04T10:16:48;5.03;;;1.88;;
71715;SDS011;59568;52.128;5.434;2023-12-04T10:19:23;5.90;;;2.65;;
71715;SDS011;59568;52.128;5.434;2023-12-04T10:21:57;4.43;;;2.40;;
71715;SDS011;59568;52.128;5.434;2023-12-04T10:24:30;6.00;;;3.65;;
71715;SDS011;59568;52.128;5.434;2023-12-04T10:27:00;6.20;;;2.60;;
71715;SDS011;59568;52.128;5.434;2023-12-04T10:32:09;10.02;;;3.55;;
71715;SDS011;59568;52.128;5.434;2023-12-04T10:34:37;6.17;;;3.20;;
71715;SDS011;59568;52.128;5.434;2023-12-04T10:37:05;6.25;;;3.15;;
71715;SDS011;59568;52.128;5.434;2023-12-04T10:39:45;6.32;;;2.95;;
71715;SDS011;59568;52.128;5.434;2023-12-04T10:42:26;6.57;;;2.85;;
71715;SDS011;59568;52.128;5.434;2023-12-04T10:44:55;6.45;;;2.85;;
71715;SDS011;59568;52.128;5.434;2023-12-04T10:47:24;5.90;;;3.23;;
71715;SDS011;59568;52.128;5.434;2023-12-04T10:49:52;6.80;;;3.53;;
71715;SDS011;59568;52.128;5.434;2023-12-04T10:52:19;6.65;;;2.72;;
71715;SDS011;59568;52.128;5.434;2023-12-04T10:54:48;6.32;;;3.35;;
71715;SDS011;59568;52.128;5.434;2023-12-04T10:57:26;9.27;;;3.50;;
71715;SDS011;59568;52.128;5.434;2023-12-04T10:59:57;6.17;;;3.03;;
71715;SDS011;59568;52.128;5.434;2023-12-04T11:02:29;5.00;;;2.38;;
71715;SDS011;59568;52.128;5.434;2023-12-04T11:05:02;6.15;;;3.05;;
71715;SDS011;59568;52.128;5.434;2023-12-04T11:07:40;6.88;;;3.85;;
71715;SDS011;59568;52.128;5.434;2023-12-04T11:10:31;5.38;;;2.58;;
71715;SDS011;59568;52.128;5.434;2023-12-04T11:13:05;6.00;;;2.77;;
71715;SDS011;59568;52.128;5.434;2023-12-04T11:15:40;8.20;;;3.13;;
71715;SDS011;59568;52.128;5.434;2023-12-04T11:18:09;6.75;;;3.08;;
71715;SDS011;59568;52.128;5.434;2023-12-04T11:20:41;6.43;;;3.47;;
71715;SDS011;59568;52.128;5.434;2023-12-04T11:23:14;6.40;;;3.22;;
71715;SDS011;59568;52.128;5.434;2023-12-04T11:25:43;7.17;;;3.20;;
71715;SDS011;59568;52.128;5.434;2023-12-04T11:28:12;6.30;;;2.97;;
71715;SDS011;59568;52.128;5.434;2023-12-04T11:30:39;6.35;;;2.83;;
71715;SDS011;59568;52.128;5.434;2023-12-04T11:33:07;6.63;;;3.95;;
71715;SDS011;59568;52.128;5.434;2023-12-04T11:35:38;6.38;;;3.35;;
71715;SDS011;59568;52.128;5.434;2023-12-04T11:38:08;6.77;;;3.50;;
71715;SDS011;59568;52.128;5.434;2023-12-04T11:40:40;7.63;;;3.38;;
71715;SDS011;59568;52.128;5.434;2023-12-04T11:43:21;9.65;;;3.97;;
71715;SDS011;59568;52.128;5.434;2023-12-04T11:45:50;10.07;;;4.60;;
71715;SDS011;59568;52.128;5.434;2023-12-04T11:48:21;7.97;;;3.80;;
71715;SDS011;59568;52.128;5.434;2023-12-04T11:50:50;10.57;;;3.83;;
71715;SDS011;59568;52.128;5.434;2023-12-04T11:53:18;8.27;;;3.83;;
71715;SDS011;59568;52.128;5.434;2023-12-04T11:55:45;6.95;;;3.90;;
71715;SDS011;59568;52.128;5.434;2023-12-04T11:58:12;6.20;;;3.67;;
71715;SDS011;59568;52.128;5.434;2023-12-04T12:00:40;7.53;;;3.25;;
71715;SDS011;59568;52.128;5.434;2023-12-04T12:03:09;7.73;;;3.73;;
71715;SDS011;59568;52.128;5.434;2023-12-04T12:05:48;5.65;;;3.30;;
71715;SDS011;59568;52.128;5.434;2023-12-04T12:08:19;7.55;;;4.00;;
71715;SDS011;59568;52.128;5.434;2023-12-04T12:10:49;8.52;;;3.60;;
71715;SDS011;59568;52.128;5.434;2023-12-04T12:13:16;10.98;;;3.85;;
71715;SDS011;59568;52.128;5.434;2023-12-04T12:15:46;10.50;;;4.07;;
71715;SDS011;59568;52.128;5.434;2023-12-04T12:18:14;6.65;;;3.38;;
71715;SDS011;59568;52.128;5.434;2023-12-04T12:20:42;8.65;;;4.22;;
71715;SDS011;59568;52.128;5.434;2023-12-04T12:23:09;6.97;;;3.58;;
71715;SDS011;59568;52.128;5.434;2023-12-04T12:25:36;6.85;;;3.80;;
71715;SDS011;59568;52.128;5.434;2023-12-04T12:28:03;8.50;;;3.90;;
71715;SDS011;59568;52.128;5.434;2023-12-04T12:30:32;8.50;;;4.25;;
71715;SDS011;59568;52.128;5.434;2023-12-04T12:32:59;6.93;;;3.70;;
71715;SDS011;59568;52.128;5.434;2023-12-04T12:35:26;6.38;;;3.58;;
71715;SDS011;59568;52.128;5.434;2023-12-04T12:37:53;8.52;;;4.47;;
71715;SDS011;59568;52.128;5.434;2023-12-04T12:40:22;8.60;;;4.00;;
71715;SDS011;59568;52.128;5.434;2023-12-04T12:42:49;7.35;;;4.15;;
71715;SDS011;59568;52.128;5.434;2023-12-04T12:45:18;6.25;;;3.60;;
71715;SDS011;59568;52.128;5.434;2023-12-04T12:47:45;8.10;;;3.70;;
71715;SDS011;59568;52.128;5.434;2023-12-04T12:50:13;7.07;;;3.85;;
71715;SDS011;59568;52.128;5.434;2023-12-04T12:52:42;7.30;;;4.00;;
71715;SDS011;59568;52.128;5.434;2023-12-04T12:55:10;6.88;;;3.60;;
71715;SDS011;59568;52.128;5.434;2023-12-04T12:57:37;9.02;;;4.07;;
71715;SDS011;59568;52.128;5.434;2023-12-04T13:00:05;8.50;;;3.85;;
71715;SDS011;59568;52.128;5.434;2023-12-04T13:02:34;8.63;;;3.70;;
71715;SDS011;59568;52.128;5.434;2023-12-04T13:05:03;7.33;;;3.83;;
71715;SDS011;59568;52.128;5.434;2023-12-04T13:07:32;9.30;;;3.83;;
71715;SDS011;59568;52.128;5.434;2023-12-04T13:09:59;7.15;;;3.60;;
71715;SDS011;59568;52.128;5.434;2023-12-04T13:12:26;10.25;;;4.18;;
71715;SDS011;59568;52.128;5.434;2023-12-04T13:14:53;7.80;;;3.97;;
71715;SDS011;59568;52.128;5.434;2023-12-04T13:17:20;7.67;;;3.73;;
71715;SDS011;59568;52.128;5.434;2023-12-04T13:19:47;13.32;;;3.83;;
71715;SDS011;59568;52.128;5.434;2023-12-04T13:22:14;8.50;;;3.95;;
71715;SDS011;59568;52.128;5.434;2023-12-04T13:24:41;6.93;;;4.05;;
71715;SDS011;59568;52.128;5.434;2023-12-04T13:27:08;7.47;;;4.07;;
71715;SDS011;59568;52.128;5.434;2023-12-04T13:29:35;6.73;;;3.97;;
71715;SDS011;59568;52.128;5.434;2023-12-04T13:32:03;6.28;;;3.88;;
71715;SDS011;59568;52.128;5.434;2023-12-04T13:34:31;8.43;;;3.83;;
71715;SDS011;59568;52.128;5.434;2023-12-04T13:36:58;8.98;;;4.20;;
71715;SDS011;59568;52.128;5.434;2023-12-04T13:39:25;6.43;;;3.58;;
71715;SDS011;59568;52.128;5.434;2023-12-04T13:42:03;8.50;;;3.97;;
71715;SDS011;59568;52.128;5.434;2023-12-04T13:44:49;8.43;;;4.15;;
71715;SDS011;59568;52.128;5.434;2023-12-04T13:47:18;8.05;;;4.15;;
71715;SDS011;59568;52.128;5.434;2023-12-04T13:49:45;6.53;;;3.33;;
71715;SDS011;59568;52.128;5.434;2023-12-04T13:52:15;7.55;;;3.60;;
71715;SDS011;59568;52.128;5.434;2023-12-04T13:54:42;7.53;;;3.40;;
71715;SDS011;59568;52.128;5.434;2023-12-04T13:57:14;7.70;;;3.85;;
71715;SDS011;59568;52.128;5.434;2023-12-04T13:59:48;8.88;;;3.42;;
71715;SDS011;59568;52.128;5.434;2023-12-04T14:02:15;7.10;;;3.53;;
71715;SDS011;59568;52.128;5.434;2023-12-04T14:04:43;6.95;;;3.40;;
71715;SDS011;59568;52.128;5.434;2023-12-04T14:07:10;8.67;;;3.97;;
71715;SDS011;59568;52.128;5.434;2023-12-04T14:09:40;9.70;;;4.13;;
71715;SDS011;59568;52.128;5.434;2023-12-04T14:12:07;7.50;;;3.55;;
71715;SDS011;59568;52.128;5.434;2023-12-04T14:14:35;6.18;;;3.17;;
71715;SDS011;59568;52.128;5.434;2023-12-04T14:17:02;6.68;;;4.05;;
71715;SDS011;59568;52.128;5.434;2023-12-04T14:19:31;7.83;;;3.73;;
71715;SDS011;59568;52.128;5.434;2023-12-04T14:21:58;7.63;;;4.18;;
71715;SDS011;59568;52.128;5.434;2023-12-04T14:24:25;8.98;;;4.43;;
71715;SDS011;59568;52.128;5.434;2023-12-04T14:26:52;9.55;;;3.70;;
71715;SDS011;59568;52.128;5.434;2023-12-04T14:29:22;8.18;;;4.20;;
71715;SDS011;59568;52.128;5.434;2023-12-04T14:31:49;9.60;;;4.17;;
71715;SDS011;59568;52.128;5.434;2023-12-04T14:34:17;7.88;;;4.15;;
71715;SDS011;59568;52.128;5.434;2023-12-04T14:36:44;13.50;;;5.60;;
71715;SDS011;59568;52.128;5.434;2023-12-04T14:39:11;10.43;;;4.60;;
71715;SDS011;59568;52.128;5.434;2023-12-04T14:41:39;9.00;;;4.35;;
71715;SDS011;59568;52.128;5.434;2023-12-04T14:44:06;7.97;;;4.03;;
71715;SDS011;59568;52.128;5.434;2023-12-04T14:46:33;7.32;;;4.15;;
71715;SDS011;59568;52.128;5.434;2023-12-04T14:49:00;11.45;;;4.47;;
71715;SDS011;59568;52.128;5.434;2023-12-04T14:51:27;7.03;;;3.63;;